Detailed Flight Report of Nuri Burak ERKAL ;
Number CXD079 
Departure Aerodrome UBBB 
Arrival Aerodrome VCBI

Map generated by the Great Circle Mapper - copyright © Karl L. Swartz.

Pilot In Command CXD079 : Nuri Burak Erkal
Aircraft B773 / TC-NZL
Date Of Flight 2020-07-02
Departure Time 02:55 UTC
Arrival Time 08:49 UTC
Block Time 05:54
Distance 2,763 Nm.
Used Fuel 32,767 Lbs.
   
Detailed Flight Log [2020/07/02 02:36:00]
Flight IATA:C001
Pilot Number:079
Company ICAO:CXD
Aircraft Type:B773
Aircraft Registration:TC-NZL
Departing Airport: UBBB
Destination Airport: VCBI
Alternate Airport:VCRI
Online: VATSIM
Route:NAMAS N41 DUKAN B449 ETRAP B449 RANAH L750 ZB G201 BINDO L750 MERUN L333 JJP W122S IKAVA Q23 BULDI W19 BPL W20 KAMGU W20 MMV A465 BEBOK A465 SAGOR
Flight Level:FL350
No pause
02:36 Zero fuel Weight: 502878 Lbs, Fuel Weight: 121054 Lbs
02:36 VATSIM:UBBB 011500Z 36012KT CAVOK 26/14 Q1012 R88/CLRD// NOSIG
02:36 VATSIM:VCBI 011510Z 22007KT 9999 SCT017 29/26 Q1008 NOSIG
02:41 Parking Brakes off
02:58 VR= 178 Knots
02:58 V2= 182 Knots
02:58 Take-off
02:58 Take off Weight: 621449 Lbs
02:58 Wind: 350º @ 012 Knots Heading: 165º
02:58 POS N40º 27´ 24´´ E050º 02´ 28´´
02:58 N11 105 N12 105
02:58 Flaps:5º at 185 Knots
02:58 Gear Up: 196 Knots
02:59 Flaps:1º at 22
4 Knots
02:59 Flaps:Up at 239 Knots
03:13 Wind:252º@032 Knots Heading: 105º Ground Speed: 522 Knots Altitude 29665 ft
03:17 TOC
03:17 Fuel Weight: 107263 Lb
03:28 Wind:261º@073 Knots Heading: 109º Ground Speed: 552 Knots Altitude 34924 ft
03:43 Wind:267º@083 Knots Heading: 114º Ground Speed: 565 Knots Altitude 34895 ft
03:58 Wind:271º@082 Knots Heading: 133º Ground Speed: 556 Knots Altitude 34875 ft
04:13 Wind:270º@065 Knots Heading: 131º Ground Speed: 544 Knots Altitude 34842 ft
04:28 Wind:274º@050 Knots Heading: 130º Ground Speed: 535 Knots Altitude 34849 ft
04:43 Wind:278º@039 Knots Heading: 131º Ground Speed: 528 Knots Altitude 34891 ft
04:58 Wind:282º@024 Knots Heading: 131º Ground Speed: 516 Knots Altitude 34862 ft
05:13 Wind:284º@016 Knots Heading: 142º Ground Speed: 508 Knots Altitude 34550 ft
05:28 Wind:267º@016 Knots Heading: 139º Ground Speed: 506 Knots
Altitude 34524 ft
05:43 Wind:256º@013 Knots Heading: 117º Ground Speed: 506 Knots Altitude 34593 ft
05:58 Wind:141º@001 Knots Heading: 151º Ground Speed: 495 Knots Altitude 34609 ft
06:13 Wind:106º@009 Knots Heading: 161º Ground Speed: 490 Knots Altitude 34711 ft
06:28 Wind:108º@022 Knots Heading: 167º Ground Speed: 484 Knots Altitude 34721 ft
06:43 Wind:112º@026 Knots Heading: 166º Ground Speed: 479 Knots Altitude 34727 ft
06:58 Wind:107º@018 Knots Heading: 170º Ground Speed: 486 Knots Altitude 34806 ft
07:13 Wind:084º@020 Knots Heading: 154º Ground Speed: 484 Knots Altitude 34845 ft
07:28 Wind:080º@027 Knots Heading: 153º Ground Speed: 475 Knots Altitude 34678 ft
07:43 Wind:074º@029 Knots Heading: 157º Ground Speed: 511 Knots Altitude 34671 ft
07:43 TOD
07:43 Fuel Weight: 36486 Lb
07:43 TOC
07:43 Fuel Weight: 36468 Lb
07:44 TOD
07:44 Fuel Weight: 36358 Lb
07:
45 TOC
07:45 Fuel Weight: 36345 Lb
07:58 Wind:076º@028 Knots Heading: 177º Ground Speed: 488 Knots Altitude 34737 ft
08:07 TOD
08:07 Fuel Weight: 30850 Lb
08:13 Wind:075º@003 Knots Heading: 180º Ground Speed: 420 Knots Altitude 25646 ft
08:28 Wind:225º@021 Knots Heading: 183º Ground Speed: 320 Knots Altitude 3477 ft
08:30 Flaps:1º at 204 Knots
08:30 Flaps:5º at 201 Knots
08:31 Gear Down: 212 Knots
08:32 Flaps:15º at 180 Knots
08:32 Flaps:30º at 162 Knots
08:32 Flaps:35º at 153 Knots
08:32 Flaps:Full at 143 Knots
08:34 TouchDown:Rate -193 ft/min Speed: 139 Knots
08:35 VATSIM:VCBI 012110Z 24008KT 9999 SCT018 29/25 Q1007 NOSIG
08:35 Land
08:35 Wind:240º@008 Knots
08:35 Heading: 217º
08:35 Flight Duration: 05:37
08:35 Landing Weight: 529560 Lbs
08:35 POS N07º 10´ 57´´ E079º 53´ 05´´
08:35 Parking brakes on
08:35 Block to Block Duration: 05:54
08:35 Fina
l Fuel: 26613 Lbls
08:35 Spent Fuel: 94440 Lbls
08:35 Flight Length: 2763 NM
08:35 TOD Land Length: 159 NM

Text Link of Flight Log http://www.candanair.net/acars/logs/CXD07920200702023600.txt
   

[ Back ]